createdAt,value
2023-03-22T00:03:28.230Z,99.90
2023-03-22T00:08:33.027Z,99.90
2023-03-22T00:13:38.242Z,99.90
2023-03-22T00:18:41.653Z,99.90
2023-03-22T00:23:45.533Z,99.90
2023-03-22T00:28:50.328Z,99.90
2023-03-22T00:33:54.104Z,99.90
2023-03-22T00:38:58.077Z,99.90
2023-03-22T00:44:03.693Z,99.90
2023-03-22T00:49:07.318Z,99.90
2023-03-22T00:54:11.039Z,99.90
2023-03-22T01:00:23.355Z,99.90
2023-03-22T01:05:29.964Z,99.90
2023-03-22T01:10:37.199Z,99.90
2023-03-22T01:15:41.560Z,99.90
2023-03-22T01:20:47.224Z,99.90
2023-03-22T01:25:51.177Z,99.90
2023-03-22T01:30:54.925Z,99.90
2023-03-22T01:36:00.086Z,99.90
2023-03-22T01:41:05.838Z,99.90
2023-03-22T01:46:13.619Z,99.90
2023-03-22T01:51:20.580Z,99.90
2023-03-22T01:56:42.580Z,99.90
2023-03-22T02:01:54.333Z,99.90
2023-03-22T02:07:00.129Z,99.90
2023-03-22T02:12:12.431Z,99.90
2023-03-22T02:17:28.560Z,99.90
2023-03-22T02:23:10.599Z,99.90
2023-03-22T02:28:19.371Z,99.90
2023-03-22T02:33:41.626Z,99.90
2023-03-22T02:39:22.174Z,99.90
2023-03-22T02:44:29.017Z,99.90
2023-03-22T02:49:35.517Z,99.90
2023-03-22T02:54:43.409Z,99.90
2023-03-22T03:00:00.751Z,99.90
2023-03-22T03:05:04.321Z,99.90
2023-03-22T03:10:09.128Z,99.90
2023-03-22T03:15:16.366Z,99.90
2023-03-22T03:20:30.642Z,99.90
2023-03-22T03:25:38.432Z,99.90
2023-03-22T03:30:49.299Z,99.90
2023-03-22T03:35:56.225Z,99.90
2023-03-22T03:41:02.121Z,99.90
2023-03-22T03:46:07.898Z,99.90
2023-03-22T03:51:13.504Z,99.90
2023-03-22T03:56:18.100Z,99.90
2023-03-22T04:01:26.434Z,99.90
2023-03-22T04:06:40.043Z,99.90
2023-03-22T04:11:49.041Z,99.90
2023-03-22T04:16:55.423Z,99.90
2023-03-22T04:22:01.125Z,99.90
2023-03-22T04:27:05.298Z,99.90
2023-03-22T04:32:19.231Z,99.90
2023-03-22T04:37:27.644Z,99.90
2023-03-22T04:42:49.479Z,99.90
2023-03-22T04:48:07.969Z,99.90
2023-03-22T04:53:13.880Z,99.90
2023-03-22T04:58:22.683Z,99.90
2023-03-22T05:03:30.618Z,99.90
2023-03-22T05:08:35.861Z,99.90
2023-03-22T05:13:42.469Z,99.90
2023-03-22T05:18:50.166Z,99.90
2023-03-22T05:23:54.163Z,99.90
2023-03-22T05:28:58.032Z,99.90
2023-03-22T05:34:17.771Z,99.90
2023-03-22T05:39:22.757Z,99.90
2023-03-22T05:44:27.288Z,99.90
2023-03-22T05:49:44.969Z,99.90
2023-03-22T05:54:49.654Z,99.90
2023-03-22T05:59:54.365Z,99.90
2023-03-22T06:05:07.918Z,99.90
2023-03-22T06:10:13.638Z,99.90
2023-03-22T06:15:17.731Z,99.90
2023-03-22T06:20:41.557Z,99.90
2023-03-22T06:25:51.356Z,99.90
2023-03-22T06:30:56.272Z,99.90
2023-03-22T06:36:09.221Z,99.90
2023-03-22T06:41:22.060Z,99.90
2023-03-22T06:46:27.393Z,99.90
2023-03-22T06:51:41.653Z,99.90
2023-03-22T06:56:44.994Z,99.90
2023-03-22T07:01:49.071Z,99.90
2023-03-22T07:06:54.375Z,99.90
2023-03-22T07:11:58.252Z,99.90
2023-03-22T07:17:02.430Z,99.90
2023-03-22T07:22:08.837Z,99.90
2023-03-22T07:27:12.883Z,99.90
2023-03-22T07:32:20.041Z,99.90
2023-03-22T07:37:53.191Z,99.90
2023-03-22T07:43:13.380Z,99.90
2023-03-22T07:48:31.889Z,99.90
2023-03-22T07:53:54.345Z,99.90
2023-03-22T07:58:57.979Z,99.90
2023-03-22T08:04:02.236Z,99.90
2023-03-22T08:09:18.138Z,99.90
2023-03-22T08:14:33.968Z,99.90
2023-03-22T08:19:40.480Z,99.90
2023-03-22T08:24:49.054Z,99.90
2023-03-22T08:30:02.490Z,99.90
2023-03-22T08:35:08.905Z,99.90
2023-03-22T08:40:15.600Z,99.90
2023-03-22T08:45:32.418Z,99.90
2023-03-22T08:50:46.041Z,99.90
2023-03-22T08:56:04.067Z,99.90
2023-03-22T09:01:26.736Z,99.90
2023-03-22T09:06:38.053Z,99.90
2023-03-22T09:11:42.992Z,99.90
2023-03-22T09:16:47.142Z,99.90
2023-03-22T09:21:52.261Z,99.90
2023-03-22T09:27:09.353Z,99.90
2023-03-22T09:32:12.738Z,99.90
2023-03-22T09:37:17.377Z,99.90
2023-03-22T09:42:31.171Z,99.90
2023-03-22T09:47:45.405Z,99.90
2023-03-22T09:52:49.368Z,99.90
2023-03-22T09:57:59.984Z,99.90
2023-03-22T10:03:08.953Z,99.90
2023-03-22T10:08:32.677Z,99.90
2023-03-22T10:13:39.921Z,99.90
2023-03-22T10:18:47.119Z,99.90
2023-03-22T10:23:52.116Z,99.90
2023-03-22T10:28:59.866Z,99.90
2023-03-22T10:34:06.770Z,99.90
2023-03-22T10:39:14.518Z,99.90
2023-03-22T10:44:20.819Z,99.90
2023-03-22T10:49:26.603Z,99.90
2023-03-22T10:54:30.603Z,99.90
2023-03-22T10:59:54.336Z,99.90
2023-03-22T11:04:58.784Z,99.90
2023-03-22T11:10:23.255Z,99.90
2023-03-22T11:15:32.509Z,98.90
2023-03-22T11:20:35.874Z,98.70
2023-03-22T11:25:44.995Z,98.80
2023-03-22T11:31:05.593Z,99.70
2023-03-22T11:36:20.401Z,99.90
2023-03-22T11:41:24.543Z,99.90
2023-03-22T11:46:29.867Z,99.10
2023-03-22T11:51:35.335Z,99.20
2023-03-22T11:56:42.221Z,99.00
2023-03-22T12:01:53.574Z,98.20
2023-03-22T12:06:58.230Z,98.70
2023-03-22T12:12:02.262Z,99.00
2023-03-22T12:17:09.058Z,99.30
2023-03-22T12:22:13.939Z,99.40
2023-03-22T12:27:18.824Z,99.00
2023-03-22T12:32:26.621Z,97.50
2023-03-22T12:37:32.089Z,97.90
2023-03-22T12:42:47.903Z,97.70
2023-03-22T12:47:58.792Z,97.00
2023-03-22T12:53:04.624Z,98.60
2023-03-22T12:58:08.698Z,97.90
2023-03-22T13:03:25.586Z,98.70
2023-03-22T13:08:30.767Z,97.70
2023-03-22T13:13:43.947Z,97.70
2023-03-22T13:19:03.181Z,96.50
2023-03-22T13:24:32.116Z,97.30
2023-03-22T13:29:37.641Z,96.10
2023-03-22T13:34:47.810Z,96.30
2023-03-22T13:39:52.038Z,94.70
2023-03-22T13:44:58.734Z,95.50
2023-03-22T13:50:12.489Z,95.30
2023-03-22T13:55:42.446Z,95.20
2023-03-22T14:00:51.314Z,95.50
2023-03-22T14:06:04.327Z,94.20
2023-03-22T14:11:18.280Z,94.50
2023-03-22T14:16:34.522Z,93.40
2023-03-22T14:21:40.565Z,94.20
